createdAt,value
2023-03-06T00:00:57.832Z,4.75
2023-03-06T00:03:59.898Z,4.23
2023-03-06T00:07:02.015Z,4.25
2023-03-06T00:10:06.791Z,3.95
2023-03-06T00:13:12.226Z,4.20
2023-03-06T00:16:14.360Z,4.13
2023-03-06T00:19:16.271Z,4.57
2023-03-06T00:22:18.931Z,3.83
2023-03-06T00:25:22.778Z,4.05
2023-03-06T00:28:25.343Z,4.13
2023-03-06T00:31:27.541Z,4.82
2023-03-06T00:34:29.614Z,4.00
2023-03-06T00:37:31.597Z,4.43
2023-03-06T00:40:33.967Z,4.05
2023-03-06T00:43:35.901Z,4.35
2023-03-06T00:46:38.159Z,4.70
2023-03-06T00:49:40.336Z,4.37
2023-03-06T00:52:43.530Z,4.53
2023-03-06T00:55:46.063Z,4.60
2023-03-06T00:58:49.244Z,4.20
2023-03-06T01:01:51.390Z,4.28
2023-03-06T01:04:53.524Z,4.60
2023-03-06T01:07:55.723Z,5.05
2023-03-06T01:10:57.742Z,4.35
2023-03-06T01:13:59.754Z,4.32
2023-03-06T01:17:01.674Z,4.03
2023-03-06T01:20:05.110Z,4.50
2023-03-06T01:23:07.292Z,4.82
2023-03-06T01:26:10.038Z,4.57
2023-03-06T01:29:12.205Z,4.45
2023-03-06T01:32:14.295Z,3.83
2023-03-06T01:35:16.432Z,4.47
2023-03-06T01:38:18.783Z,4.70
2023-03-06T01:41:21.649Z,4.50
2023-03-06T01:44:23.806Z,4.65
2023-03-06T01:47:26.147Z,4.40
2023-03-06T01:50:28.845Z,3.47
2023-03-06T01:53:31.690Z,3.88
2023-03-06T01:56:33.938Z,4.20
2023-03-06T01:59:38.887Z,4.03
2023-03-06T02:02:44.070Z,4.20
2023-03-06T02:05:47.699Z,4.30
2023-03-06T02:08:52.401Z,4.28
2023-03-06T02:11:54.431Z,3.85
2023-03-06T02:14:56.985Z,3.80
2023-03-06T02:18:00.473Z,3.58
2023-03-06T02:21:06.207Z,3.77
2023-03-06T02:24:28.217Z,4.32
2023-03-06T02:27:31.199Z,3.80
2023-03-06T02:30:35.150Z,3.60
2023-03-06T02:33:37.062Z,3.97
2023-03-06T02:36:44.432Z,3.07
2023-03-06T02:39:54.958Z,3.70
2023-03-06T02:42:58.549Z,3.92
2023-03-06T02:46:01.152Z,4.30
2023-03-06T02:49:03.515Z,3.72
2023-03-06T02:52:06.980Z,3.20
2023-03-06T02:55:09.323Z,4.95
2023-03-06T02:58:11.255Z,4.15
2023-03-06T03:01:17.371Z,3.92
2023-03-06T03:04:19.693Z,3.45
2023-03-06T03:07:21.905Z,3.53
2023-03-06T03:10:24.272Z,3.50
2023-03-06T03:13:26.770Z,4.40
2023-03-06T03:16:28.662Z,3.38
2023-03-06T03:19:30.760Z,3.47
2023-03-06T03:22:33.397Z,3.40
2023-03-06T03:25:37.482Z,3.70
2023-03-06T03:28:39.590Z,3.90
2023-03-06T03:31:41.916Z,3.70
2023-03-06T03:34:46.550Z,4.30
2023-03-06T03:37:48.570Z,3.67
2023-03-06T03:40:52.165Z,3.92
2023-03-06T03:43:54.319Z,3.42
2023-03-06T03:46:56.208Z,3.47
2023-03-06T03:49:58.056Z,4.07
2023-03-06T03:53:04.563Z,4.20
2023-03-06T03:56:08.924Z,4.13
2023-03-06T03:59:11.232Z,4.03
2023-03-06T04:02:14.605Z,3.92
2023-03-06T04:05:16.917Z,3.90
2023-03-06T04:08:21.214Z,4.30
2023-03-06T04:11:23.629Z,3.80
2023-03-06T04:14:28.605Z,4.22
2023-03-06T04:17:30.801Z,5.28
2023-03-06T04:20:32.960Z,4.55
2023-03-06T04:23:35.165Z,4.10
2023-03-06T04:26:37.624Z,4.03
2023-03-06T04:29:39.875Z,4.53
2023-03-06T04:32:41.883Z,4.30
2023-03-06T04:35:44.032Z,4.10
2023-03-06T04:38:46.093Z,3.57
2023-03-06T04:41:48.364Z,4.28
2023-03-06T04:44:50.526Z,4.00
2023-03-06T04:47:52.659Z,4.05
2023-03-06T04:50:55.739Z,3.97
2023-03-06T04:53:58.792Z,4.00
2023-03-06T04:57:01.113Z,4.30
2023-03-06T05:00:06.692Z,4.95
2023-03-06T05:03:09.145Z,4.95
2023-03-06T05:06:11.149Z,4.75
2023-03-06T05:09:13.148Z,4.60
2023-03-06T05:12:15.375Z,4.43
2023-03-06T05:15:18.092Z,4.65
2023-03-06T05:18:21.625Z,5.15
2023-03-06T05:21:23.697Z,4.93
2023-03-06T05:24:26.119Z,4.80
2023-03-06T05:27:28.979Z,5.05
2023-03-06T05:30:30.931Z,5.00
2023-03-06T05:33:35.366Z,5.57
2023-03-06T05:36:37.736Z,5.20
2023-03-06T05:39:39.754Z,4.90
2023-03-06T05:42:42.157Z,5.45
2023-03-06T05:45:44.689Z,5.20
2023-03-06T05:48:47.238Z,5.68
2023-03-06T05:51:49.822Z,5.68
2023-03-06T05:54:53.966Z,4.90
2023-03-06T05:57:56.282Z,5.22
2023-03-06T06:00:58.561Z,5.55
2023-03-06T06:04:02.268Z,5.30
2023-03-06T06:07:06.070Z,5.65
2023-03-06T06:10:08.972Z,5.43
2023-03-06T06:13:11.036Z,5.28
2023-03-06T06:16:19.335Z,4.88
2023-03-06T06:19:23.231Z,5.35
2023-03-06T06:22:25.348Z,5.78
2023-03-06T06:25:29.227Z,4.90
2023-03-06T06:28:32.374Z,5.10
2023-03-06T06:31:37.680Z,5.10
2023-03-06T06:34:39.688Z,6.40
2023-03-06T06:37:41.879Z,5.15
2023-03-06T06:40:44.787Z,5.90
2023-03-06T06:43:51.288Z,5.20
2023-03-06T06:50:18.349Z,4.97
2023-03-06T06:53:20.878Z,5.63
2023-03-06T06:56:23.565Z,5.40
2023-03-06T07:03:40.040Z,5.20
2023-03-06T07:11:01.659Z,5.25
2023-03-06T07:18:51.459Z,5.60
2023-03-06T07:21:59.404Z,5.88
2023-03-06T07:26:05.307Z,6.30
2023-03-06T07:29:13.192Z,5.72
2023-03-06T07:32:19.105Z,6.27
2023-03-06T07:35:28.595Z,5.80
2023-03-06T07:38:36.929Z,4.80
2023-03-06T07:41:43.699Z,4.93
2023-03-06T07:44:55.363Z,5.63
2023-03-06T07:48:01.609Z,6.87
2023-03-06T07:51:07.788Z,5.90
2023-03-06T07:54:21.248Z,5.13
2023-03-06T07:57:35.495Z,4.30
2023-03-06T08:31:41.947Z,6.25
2023-03-06T08:34:46.185Z,5.63
2023-03-06T08:37:48.960Z,5.30
2023-03-06T08:40:52.865Z,5.57
2023-03-06T08:43:55.842Z,6.80
2023-03-06T08:47:01.074Z,6.18
2023-03-06T08:50:10.325Z,5.47
2023-03-06T08:53:13.343Z,6.18
2023-03-06T08:56:29.201Z,6.32
2023-03-06T08:59:39.162Z,7.63
2023-03-06T09:10:29.828Z,5.80
2023-03-06T09:13:35.210Z,6.93
2023-03-06T09:16:58.184Z,6.97
2023-03-06T09:20:25.612Z,7.13
2023-03-06T09:23:37.651Z,6.37
2023-03-06T09:26:49.353Z,7.63
2023-03-06T09:30:05.836Z,7.65
2023-03-06T09:33:12.302Z,7.30
2023-03-06T09:36:20.950Z,6.95
2023-03-06T09:39:26.906Z,6.17
2023-03-06T09:42:36.214Z,6.35
2023-03-06T09:45:43.522Z,7.75
2023-03-06T09:49:18.222Z,7.22
2023-03-06T09:53:04.299Z,6.28
2023-03-06T09:56:19.987Z,5.97
2023-03-06T09:59:32.063Z,6.43
2023-03-06T10:02:53.283Z,7.53
2023-03-06T10:07:06.228Z,7.38
2023-03-06T10:10:47.709Z,7.30
2023-03-06T10:14:33.653Z,7.27
2023-03-06T10:17:55.036Z,7.13
2023-03-06T10:21:18.711Z,6.90
2023-03-06T10:24:52.352Z,7.20
2023-03-06T10:28:17.343Z,6.07
2023-03-06T10:31:27.402Z,7.40
2023-03-06T10:34:36.973Z,7.90
2023-03-06T10:37:42.301Z,8.32
2023-03-06T10:41:27.773Z,7.35
2023-03-06T10:44:32.453Z,7.72
2023-03-06T10:47:36.337Z,7.63
2023-03-06T10:50:39.600Z,7.68
2023-03-06T10:54:20.433Z,7.30
2023-03-06T10:57:32.285Z,8.07
2023-03-06T11:01:56.333Z,8.30
2023-03-06T11:10:44.283Z,6.35
2023-03-06T11:23:42.882Z,6.43
2023-03-06T11:27:12.130Z,7.93
2023-03-06T11:30:22.681Z,7.93
2023-03-06T11:33:46.874Z,7.97
2023-03-06T11:37:10.574Z,7.57
2023-03-06T11:40:43.444Z,7.90
2023-03-06T11:44:15.661Z,8.43
2023-03-06T11:47:37.844Z,7.53
2023-03-06T11:50:48.743Z,8.25
2023-03-06T11:53:53.800Z,6.97
2023-03-06T11:57:14.946Z,8.00
2023-03-06T12:00:58.263Z,8.00
2023-03-06T12:04:14.257Z,7.20
2023-03-06T12:07:49.613Z,7.97
2023-03-06T12:11:03.345Z,8.45
2023-03-06T12:18:38.987Z,7.87
2023-03-06T12:23:14.830Z,7.63
2023-03-06T12:26:41.851Z,7.28
2023-03-06T12:34:08.999Z,7.40
2023-03-06T12:37:12.070Z,8.33
2023-03-06T12:40:26.658Z,7.25
2023-03-06T12:44:20.329Z,8.02
2023-03-06T12:47:28.418Z,8.00
2023-03-06T12:50:38.367Z,7.45
2023-03-06T12:53:55.350Z,7.07
2023-03-06T12:56:59.524Z,7.43
2023-03-06T13:00:02.468Z,7.45
2023-03-06T13:03:35.351Z,8.80
2023-03-06T13:07:06.063Z,7.72
2023-03-06T13:10:20.566Z,8.00
2023-03-06T13:14:03.311Z,8.90
2023-03-06T13:17:36.158Z,9.23
2023-03-06T13:21:54.725Z,8.48
2023-03-06T13:25:26.184Z,9.38
2023-03-06T13:28:53.145Z,6.60
2023-03-06T13:32:04.621Z,8.88
2023-03-06T13:35:33.766Z,7.75
2023-03-06T13:38:40.946Z,7.35
2023-03-06T13:42:05.575Z,9.43
2023-03-06T13:45:24.173Z,8.83
2023-03-06T13:48:45.506Z,9.60
2023-03-06T13:51:54.805Z,8.73
2023-03-06T13:55:19.153Z,8.50
2023-03-06T13:59:07.051Z,8.85
2023-03-06T14:02:55.000Z,9.63
2023-03-06T14:05:59.433Z,9.75
2023-03-06T14:09:06.429Z,8.85
2023-03-06T14:12:27.772Z,9.15
2023-03-06T14:15:55.123Z,10.05
2023-03-06T14:19:03.929Z,9.70
2023-03-06T14:22:13.356Z,9.77
2023-03-06T14:25:18.958Z,8.77
2023-03-06T14:32:05.047Z,10.05
2023-03-06T14:35:19.101Z,7.60
2023-03-06T14:38:22.529Z,9.00
2023-03-06T14:41:28.370Z,8.02
2023-03-06T14:44:30.830Z,11.15
2023-03-06T14:47:37.897Z,7.63
2023-03-06T14:50:41.074Z,6.33
2023-03-06T14:53:45.823Z,9.40
2023-03-06T14:56:53.672Z,6.82
2023-03-06T15:00:00.395Z,9.02
2023-03-06T15:03:10.208Z,9.98
2023-03-06T15:06:32.020Z,10.93
2023-03-06T15:09:39.349Z,10.88
2023-03-06T15:12:41.994Z,8.32
2023-03-06T15:16:09.673Z,9.10
2023-03-06T15:19:42.889Z,10.05
2023-03-06T15:22:59.887Z,10.13
2023-03-06T15:26:28.727Z,7.80
2023-03-06T15:29:40.527Z,10.10
2023-03-06T15:32:44.146Z,9.60
2023-03-06T15:36:05.446Z,7.95
2023-03-06T15:39:45.971Z,10.00
2023-03-06T15:42:51.045Z,9.60
2023-03-06T15:46:00.250Z,6.45
2023-03-06T15:49:05.406Z,7.20
2023-03-06T15:52:10.377Z,10.25
2023-03-06T15:55:17.276Z,10.57
2023-03-06T15:58:30.895Z,7.57
2023-03-06T16:01:43.581Z,10.05
2023-03-06T16:04:47.069Z,9.23
2023-03-06T16:07:49.995Z,10.93
2023-03-06T16:10:52.894Z,7.00
2023-03-06T16:13:58.257Z,7.20
2023-03-06T16:17:03.860Z,9.40
2023-03-06T16:20:11.140Z,8.25
2023-03-06T16:23:15.528Z,9.32
2023-03-06T16:26:44.900Z,9.00
2023-03-06T16:29:51.618Z,7.50
2023-03-06T16:32:54.178Z,7.97
2023-03-06T16:35:56.619Z,7.30
2023-03-06T16:39:00.794Z,7.05
2023-03-06T16:42:03.442Z,6.13
2023-03-06T16:45:09.523Z,9.70
2023-03-06T16:48:16.001Z,7.25
2023-03-06T16:51:23.726Z,5.75
2023-03-06T16:54:26.618Z,9.25
2023-03-06T16:57:36.334Z,8.00
2023-03-06T17:00:39.940Z,6.18
2023-03-06T17:03:42.707Z,8.07
2023-03-06T17:06:46.056Z,9.27
2023-03-06T17:09:48.125Z,6.60
2023-03-06T17:12:50.580Z,8.27
2023-03-06T17:15:59.507Z,7.80
2023-03-06T17:19:02.758Z,6.53
2023-03-06T17:22:05.123Z,6.88
2023-03-06T17:25:10.600Z,8.30
2023-03-06T17:28:13.523Z,8.90
2023-03-06T17:31:21.504Z,9.50
2023-03-06T17:34:24.683Z,9.77
2023-03-06T17:37:26.862Z,8.90
2023-03-06T17:40:30.458Z,10.57
2023-03-06T17:43:33.238Z,8.30
2023-03-06T17:46:35.444Z,10.80
2023-03-06T17:49:42.865Z,9.93
2023-03-06T17:52:46.009Z,10.10
2023-03-06T17:55:51.550Z,10.52
2023-03-06T17:58:55.527Z,9.80
2023-03-06T18:01:59.039Z,10.60
2023-03-06T18:05:02.858Z,7.97
2023-03-06T18:08:08.650Z,10.23
2023-03-06T18:11:12.419Z,8.68
2023-03-06T18:14:15.568Z,9.33
2023-03-06T18:17:18.811Z,10.02
2023-03-06T18:20:21.550Z,10.05
2023-03-06T18:23:24.379Z,7.10
2023-03-06T18:26:29.507Z,8.40
2023-03-06T18:29:34.877Z,8.90
2023-03-06T18:32:37.147Z,8.60
2023-03-06T18:35:44.418Z,10.02
2023-03-06T18:38:48.149Z,9.07
2023-03-06T18:41:50.711Z,9.63
2023-03-06T18:44:54.805Z,10.13
2023-03-06T18:47:57.336Z,10.50
2023-03-06T18:51:08.223Z,6.80
2023-03-06T18:54:12.224Z,10.77
2023-03-06T18:57:14.940Z,9.70
2023-03-06T19:00:17.850Z,8.70
2023-03-06T19:03:21.037Z,8.57
2023-03-06T19:06:24.582Z,10.35
2023-03-06T19:09:28.122Z,10.63
2023-03-06T19:12:33.030Z,10.38
2023-03-06T19:15:48.521Z,10.90
2023-03-06T19:18:52.259Z,10.55
2023-03-06T19:21:57.091Z,11.13
2023-03-06T19:24:59.975Z,11.13
2023-03-06T19:28:03.350Z,11.35
2023-03-06T19:31:14.824Z,11.07
2023-03-06T19:34:17.192Z,9.90
2023-03-06T19:37:19.823Z,11.55
2023-03-06T19:40:24.239Z,11.13
2023-03-06T19:43:28.660Z,11.57
2023-03-06T19:46:33.042Z,12.20
2023-03-06T19:49:36.374Z,11.32
2023-03-06T19:52:39.249Z,11.20
2023-03-06T19:55:43.236Z,11.93
2023-03-06T19:58:45.286Z,11.23
2023-03-06T20:01:47.570Z,10.57
2023-03-06T20:04:50.419Z,11.55
2023-03-06T20:07:53.351Z,13.00
2023-03-06T20:10:56.121Z,13.38
2023-03-06T20:13:59.995Z,12.90
2023-03-06T20:17:02.511Z,12.80
2023-03-06T20:20:09.721Z,12.50
2023-03-06T20:23:12.606Z,13.23
2023-03-06T20:26:15.380Z,12.02
2023-03-06T20:29:18.995Z,12.65
2023-03-06T20:32:22.607Z,11.23
2023-03-06T20:35:26.679Z,12.23
2023-03-06T20:38:29.417Z,13.00
2023-03-06T20:41:32.802Z,11.63
2023-03-06T20:44:37.094Z,11.88
2023-03-06T20:47:39.688Z,11.13
2023-03-06T20:50:43.744Z,12.70
2023-03-06T20:53:48.148Z,13.13
2023-03-06T20:56:50.842Z,10.95
2023-03-06T20:59:55.911Z,12.20
2023-03-06T21:02:58.165Z,11.67
2023-03-06T21:06:00.533Z,11.65
2023-03-06T21:09:05.458Z,13.05
2023-03-06T21:12:07.848Z,12.02
2023-03-06T21:15:10.827Z,12.23
2023-03-06T21:18:13.334Z,12.53
2023-03-06T21:21:18.689Z,12.18
2023-03-06T21:24:21.437Z,13.13
2023-03-06T21:27:23.693Z,12.15
2023-03-06T21:30:29.769Z,11.60
2023-03-06T21:33:32.095Z,11.17
2023-03-06T21:36:34.524Z,12.05
2023-03-06T21:39:36.838Z,12.52
2023-03-06T21:42:39.163Z,13.27
2023-03-06T21:45:46.227Z,13.02
2023-03-06T21:48:48.889Z,12.17
2023-03-06T21:51:51.705Z,12.15
2023-03-06T21:54:53.703Z,12.07
2023-03-06T21:57:56.474Z,13.23
2023-03-06T22:00:58.835Z,12.68
2023-03-06T22:04:01.401Z,11.97
2023-03-06T22:07:03.727Z,12.52
2023-03-06T22:10:07.503Z,12.63
2023-03-06T22:13:09.875Z,12.95
2023-03-06T22:16:12.948Z,13.35
2023-03-06T22:19:15.836Z,12.93
2023-03-06T22:22:20.007Z,12.27
2023-03-06T22:25:22.135Z,12.57
2023-03-06T22:28:24.648Z,12.80
2023-03-06T22:31:29.237Z,12.40
2023-03-06T22:34:32.039Z,13.77
2023-03-06T22:37:34.316Z,12.15
2023-03-06T22:40:36.467Z,12.93
2023-03-06T22:43:39.062Z,13.70
2023-03-06T22:46:41.897Z,14.10
2023-03-06T22:49:44.356Z,11.70
2023-03-06T22:52:49.390Z,12.93
2023-03-06T22:55:51.722Z,12.32
2023-03-06T22:58:53.892Z,13.02
2023-03-06T23:01:57.077Z,13.88
2023-03-06T23:04:59.537Z,14.57
2023-03-06T23:08:01.659Z,14.82
2023-03-06T23:11:10.184Z,13.35
2023-03-06T23:14:12.859Z,14.23
2023-03-06T23:17:14.906Z,14.10
2023-03-06T23:20:17.770Z,15.30
2023-03-06T23:23:22.246Z,13.10
2023-03-06T23:26:27.880Z,14.55
2023-03-06T23:29:29.970Z,14.88
2023-03-06T23:32:33.808Z,14.48
2023-03-06T23:35:38.078Z,14.33
2023-03-06T23:38:44.392Z,14.20
2023-03-06T23:41:46.953Z,13.93
2023-03-06T23:44:49.237Z,14.60
2023-03-06T23:47:51.580Z,14.07
2023-03-06T23:50:54.145Z,14.73
2023-03-06T23:53:58.854Z,15.50
2023-03-06T23:57:01.149Z,14.18
